Wicksville, South Dakota
Current Conditions -  °F | °C
As of 9:52 PM on Saturday 22 Nov 2014 (Local Time) from KRAP Reporting Station
Overcast Overcast  
Wind Chill: 28°   Ceiling: 7500
Heat Index: 39°   Visibility: 10mi
Dew Point: 33°   Wind: 28mph
Humidity: 79%   Direction: 340°NNW
Pressure: 29.47"   Gusts: 37mph
Location:  44.0702°N, 102.553°W
Report Text: KRAP 230452Z 34024G32KT 10SM SCT050 OVC075 04/01 A2947 RMK AO2 PK WND 33041/0432 SLP989 T00390006 PNO $
Loading
Personal Weather Stations






























Interactive Weather Map New forecast layout! Learn more

10-Day Weather Forecast

Advertisements
Track Severe Weather on mobile